sensor_id;sensor_type;location;lat;lon;timestamp;P1;durP1;ratioP1;P2;durP2;ratioP2
16246;SDS011;8231;50.866;7.944;2023-12-20T00:00:04;4.07;;;3.78;;
16246;SDS011;8231;50.866;7.944;2023-12-20T00:02:36;5.28;;;4.82;;
16246;SDS011;8231;50.866;7.944;2023-12-20T00:05:04;3.80;;;3.50;;
16246;SDS011;8231;50.866;7.944;2023-12-20T00:07:33;3.53;;;3.33;;
16246;SDS011;8231;50.866;7.944;2023-12-20T00:10:01;4.93;;;4.53;;
16246;SDS011;8231;50.866;7.944;2023-12-20T00:12:30;4.63;;;4.25;;
16246;SDS011;8231;50.866;7.944;2023-12-20T00:14:58;3.72;;;3.42;;
16246;SDS011;8231;50.866;7.944;2023-12-20T00:17:27;4.82;;;4.43;;
16246;SDS011;8231;50.866;7.944;2023-12-20T00:19:56;4.43;;;4.03;;
16246;SDS011;8231;50.866;7.944;2023-12-20T00:22:24;3.60;;;3.38;;
16246;SDS011;8231;50.866;7.944;2023-12-20T00:24:52;3.95;;;3.65;;
16246;SDS011;8231;50.866;7.944;2023-12-20T00:27:20;3.70;;;3.10;;
16246;SDS011;8231;50.866;7.944;2023-12-20T00:29:49;3.05;;;2.85;;
16246;SDS011;8231;50.866;7.944;2023-12-20T00:32:17;2.67;;;2.47;;
16246;SDS011;8231;50.866;7.944;2023-12-20T00:34:47;3.45;;;3.22;;
16246;SDS011;8231;50.866;7.944;2023-12-20T00:37:15;3.88;;;3.47;;
16246;SDS011;8231;50.866;7.944;2023-12-20T00:39:43;3.15;;;2.95;;
16246;SDS011;8231;50.866;7.944;2023-12-20T00:42:11;3.80;;;3.47;;
16246;SDS011;8231;50.866;7.944;2023-12-20T00:44:40;3.60;;;3.30;;
16246;SDS011;8231;50.866;7.944;2023-12-20T00:47:08;3.15;;;2.95;;
16246;SDS011;8231;50.866;7.944;2023-12-20T00:49:36;4.03;;;3.72;;
16246;SDS011;8231;50.866;7.944;2023-12-20T00:52:06;5.78;;;4.22;;
16246;SDS011;8231;50.866;7.944;2023-12-20T00:54:34;4.65;;;4.00;;
16246;SDS011;8231;50.866;7.944;2023-12-20T00:57:03;3.22;;;3.03;;
16246;SDS011;8231;50.866;7.944;2023-12-20T00:59:31;3.30;;;3.10;;
16246;SDS011;8231;50.866;7.944;2023-12-20T01:01:59;3.95;;;3.65;;
16246;SDS011;8231;50.866;7.944;2023-12-20T01:04:27;5.35;;;5.05;;
16246;SDS011;8231;50.866;7.944;2023-12-20T01:06:56;3.70;;;3.40;;
16246;SDS011;8231;50.866;7.944;2023-12-20T01:09:25;3.75;;;3.45;;
16246;SDS011;8231;50.866;7.944;2023-12-20T01:11:53;3.45;;;3.25;;
16246;SDS011;8231;50.866;7.944;2023-12-20T01:14:22;3.13;;;2.92;;
16246;SDS011;8231;50.866;7.944;2023-12-20T01:16:50;3.50;;;3.30;;
16246;SDS011;8231;50.866;7.944;2023-12-20T01:19:18;4.03;;;3.72;;
16246;SDS011;8231;50.866;7.944;2023-12-20T01:21:47;3.28;;;3.08;;
16246;SDS011;8231;50.866;7.944;2023-12-20T01:24:15;3.22;;;2.75;;
16246;SDS011;8231;50.866;7.944;2023-12-20T01:26:45;3.45;;;3.25;;
16246;SDS011;8231;50.866;7.944;2023-12-20T01:29:13;3.95;;;3.65;;
16246;SDS011;8231;50.866;7.944;2023-12-20T01:31:42;3.10;;;2.90;;
16246;SDS011;8231;50.866;7.944;2023-12-20T01:34:10;3.22;;;3.03;;
16246;SDS011;8231;50.866;7.944;2023-12-20T01:36:38;10.30;;;9.68;;
16246;SDS011;8231;50.866;7.944;2023-12-20T01:39:06;3.05;;;2.83;;
16246;SDS011;8231;50.866;7.944;2023-12-20T01:41:51;3.60;;;3.38;;
16246;SDS011;8231;50.866;7.944;2023-12-20T01:44:20;3.40;;;3.20;;
16246;SDS011;8231;50.866;7.944;2023-12-20T01:46:48;2.80;;;2.60;;
16246;SDS011;8231;50.866;7.944;2023-12-20T01:49:17;3.13;;;2.88;;
16246;SDS011;8231;50.866;7.944;2023-12-20T01:51:45;2.97;;;2.78;;
16246;SDS011;8231;50.866;7.944;2023-12-20T01:54:14;7.00;;;6.50;;
16246;SDS011;8231;50.866;7.944;2023-12-20T01:56:43;3.83;;;3.50;;
16246;SDS011;8231;50.866;7.944;2023-12-20T01:59:12;9.25;;;8.48;;
16246;SDS011;8231;50.866;7.944;2023-12-20T02:01:41;36.97;;;8.65;;
16246;SDS011;8231;50.866;7.944;2023-12-20T02:04:09;1.75;;;1.60;;
16246;SDS011;8231;50.866;7.944;2023-12-20T02:06:37;2.50;;;2.00;;
16246;SDS011;8231;50.866;7.944;2023-12-20T02:09:08;2.42;;;2.22;;
16246;SDS011;8231;50.866;7.944;2023-12-20T02:11:36;5.57;;;5.22;;
16246;SDS011;8231;50.866;7.944;2023-12-20T02:14:04;6.35;;;3.03;;
16246;SDS011;8231;50.866;7.944;2023-12-20T02:16:33;2.65;;;2.45;;
16246;SDS011;8231;50.866;7.944;2023-12-20T02:19:02;7.63;;;6.85;;
16246;SDS011;8231;50.866;7.944;2023-12-20T02:21:33;6.10;;;3.67;;
16246;SDS011;8231;50.866;7.944;2023-12-20T02:24:02;3.65;;;3.17;;
16246;SDS011;8231;50.866;7.944;2023-12-20T02:26:30;7.97;;;4.22;;
16246;SDS011;8231;50.866;7.944;2023-12-20T02:28:59;6.32;;;3.58;;
16246;SDS011;8231;50.866;7.944;2023-12-20T02:31:28;5.28;;;3.60;;
16246;SDS011;8231;50.866;7.944;2023-12-20T02:33:56;4.65;;;3.33;;
16246;SDS011;8231;50.866;7.944;2023-12-20T02:36:25;5.78;;;3.10;;
16246;SDS011;8231;50.866;7.944;2023-12-20T02:38:54;4.57;;;3.55;;
16246;SDS011;8231;50.866;7.944;2023-12-20T02:41:22;5.63;;;3.05;;
16246;SDS011;8231;50.866;7.944;2023-12-20T02:43:50;7.43;;;3.95;;
16246;SDS011;8231;50.866;7.944;2023-12-20T02:46:18;6.45;;;3.85;;
16246;SDS011;8231;50.866;7.944;2023-12-20T02:48:46;7.45;;;3.58;;
16246;SDS011;8231;50.866;7.944;2023-12-20T02:51:14;4.90;;;3.38;;
16246;SDS011;8231;50.866;7.944;2023-12-20T02:53:43;5.47;;;3.78;;
16246;SDS011;8231;50.866;7.944;2023-12-20T02:56:12;4.40;;;2.83;;
16246;SDS011;8231;50.866;7.944;2023-12-20T02:58:41;6.03;;;3.40;;
16246;SDS011;8231;50.866;7.944;2023-12-20T03:01:09;4.40;;;3.58;;
16246;SDS011;8231;50.866;7.944;2023-12-20T03:03:37;7.55;;;3.58;;
16246;SDS011;8231;50.866;7.944;2023-12-20T03:06:05;8.43;;;4.45;;
16246;SDS011;8231;50.866;7.944;2023-12-20T03:08:33;5.72;;;4.45;;
16246;SDS011;8231;50.866;7.944;2023-12-20T03:11:02;7.45;;;4.97;;
16246;SDS011;8231;50.866;7.944;2023-12-20T03:13:32;9.00;;;5.03;;
16246;SDS011;8231;50.866;7.944;2023-12-20T03:16:00;11.48;;;5.65;;
16246;SDS011;8231;50.866;7.944;2023-12-20T03:18:28;8.98;;;5.25;;
16246;SDS011;8231;50.866;7.944;2023-12-20T03:20:56;7.68;;;5.53;;
16246;SDS011;8231;50.866;7.944;2023-12-20T03:23:24;8.80;;;6.68;;
16246;SDS011;8231;50.866;7.944;2023-12-20T03:25:53;8.18;;;5.15;;
16246;SDS011;8231;50.866;7.944;2023-12-20T03:28:21;5.93;;;5.35;;
16246;SDS011;8231;50.866;7.944;2023-12-20T03:30:51;7.43;;;6.07;;
16246;SDS011;8231;50.866;7.944;2023-12-20T03:33:19;6.78;;;5.53;;
16246;SDS011;8231;50.866;7.944;2023-12-20T03:35:48;7.88;;;7.05;;
16246;SDS011;8231;50.866;7.944;2023-12-20T03:38:16;11.68;;;6.68;;
16246;SDS011;8231;50.866;7.944;2023-12-20T03:40:44;8.60;;;6.10;;
16246;SDS011;8231;50.866;7.944;2023-12-20T03:43:13;10.98;;;6.55;;
16246;SDS011;8231;50.866;7.944;2023-12-20T03:45:41;7.25;;;5.80;;
16246;SDS011;8231;50.866;7.944;2023-12-20T03:48:11;10.75;;;9.40;;
16246;SDS011;8231;50.866;7.944;2023-12-20T03:50:39;10.13;;;6.65;;
16246;SDS011;8231;50.866;7.944;2023-12-20T03:53:07;6.30;;;5.70;;
16246;SDS011;8231;50.866;7.944;2023-12-20T03:55:35;9.25;;;6.20;;
16246;SDS011;8231;50.866;7.944;2023-12-20T03:58:03;7.40;;;6.40;;
16246;SDS011;8231;50.866;7.944;2023-12-20T04:00:31;11.70;;;7.38;;
16246;SDS011;8231;50.866;7.944;2023-12-20T04:03:00;10.77;;;6.88;;
16246;SDS011;8231;50.866;7.944;2023-12-20T04:05:30;8.07;;;6.20;;
16246;SDS011;8231;50.866;7.944;2023-12-20T04:07:59;7.93;;;5.90;;
16246;SDS011;8231;50.866;7.944;2023-12-20T04:10:29;8.73;;;6.00;;
16246;SDS011;8231;50.866;7.944;2023-12-20T04:12:58;7.80;;;5.70;;
16246;SDS011;8231;50.866;7.944;2023-12-20T04:15:26;9.80;;;6.45;;
16246;SDS011;8231;50.866;7.944;2023-12-20T04:17:54;11.27;;;5.25;;
16246;SDS011;8231;50.866;7.944;2023-12-20T04:20:22;9.20;;;5.45;;
16246;SDS011;8231;50.866;7.944;2023-12-20T04:22:52;15.70;;;7.15;;
16246;SDS011;8231;50.866;7.944;2023-12-20T04:25:20;9.77;;;6.57;;
16246;SDS011;8231;50.866;7.944;2023-12-20T04:27:49;12.52;;;7.75;;
16246;SDS011;8231;50.866;7.944;2023-12-20T04:30:17;12.82;;;7.43;;
16246;SDS011;8231;50.866;7.944;2023-12-20T04:32:45;11.88;;;8.15;;
16246;SDS011;8231;50.866;7.944;2023-12-20T04:35:14;8.77;;;7.93;;
16246;SDS011;8231;50.866;7.944;2023-12-20T04:37:42;9.10;;;7.20;;
16246;SDS011;8231;50.866;7.944;2023-12-20T04:40:12;13.13;;;8.80;;
16246;SDS011;8231;50.866;7.944;2023-12-20T04:42:40;12.40;;;7.53;;
16246;SDS011;8231;50.866;7.944;2023-12-20T04:45:08;8.35;;;6.97;;
16246;SDS011;8231;50.866;7.944;2023-12-20T04:47:39;10.38;;;7.57;;
16246;SDS011;8231;50.866;7.944;2023-12-20T04:50:10;16.23;;;8.68;;
16246;SDS011;8231;50.866;7.944;2023-12-20T04:52:40;11.07;;;7.05;;
16246;SDS011;8231;50.866;7.944;2023-12-20T04:55:08;16.67;;;7.68;;
16246;SDS011;8231;50.866;7.944;2023-12-20T04:57:37;10.77;;;7.53;;
16246;SDS011;8231;50.866;7.944;2023-12-20T05:00:06;11.18;;;6.75;;
16246;SDS011;8231;50.866;7.944;2023-12-20T05:02:35;12.93;;;7.32;;
16246;SDS011;8231;50.866;7.944;2023-12-20T05:05:04;10.05;;;6.38;;
16246;SDS011;8231;50.866;7.944;2023-12-20T05:07:33;8.88;;;7.75;;
16246;SDS011;8231;50.866;7.944;2023-12-20T05:10:02;15.30;;;8.18;;
16246;SDS011;8231;50.866;7.944;2023-12-20T05:12:31;17.52;;;8.45;;
16246;SDS011;8231;50.866;7.944;2023-12-20T05:15:00;12.23;;;7.85;;
16246;SDS011;8231;50.866;7.944;2023-12-20T05:17:30;15.20;;;7.53;;
16246;SDS011;8231;50.866;7.944;2023-12-20T05:19:58;12.60;;;6.70;;
16246;SDS011;8231;50.866;7.944;2023-12-20T05:22:26;16.70;;;9.18;;
16246;SDS011;8231;50.866;7.944;2023-12-20T05:24:55;13.43;;;6.97;;
16246;SDS011;8231;50.866;7.944;2023-12-20T05:27:23;15.63;;;6.97;;
16246;SDS011;8231;50.866;7.944;2023-12-20T05:29:51;12.07;;;5.82;;
16246;SDS011;8231;50.866;7.944;2023-12-20T05:32:20;16.75;;;7.25;;
16246;SDS011;8231;50.866;7.944;2023-12-20T05:34:49;15.20;;;6.45;;
16246;SDS011;8231;50.866;7.944;2023-12-20T05:37:17;18.17;;;9.77;;
16246;SDS011;8231;50.866;7.944;2023-12-20T05:39:45;16.00;;;7.88;;
16246;SDS011;8231;50.866;7.944;2023-12-20T05:42:13;14.45;;;6.30;;
16246;SDS011;8231;50.866;7.944;2023-12-20T05:44:41;13.40;;;6.00;;
16246;SDS011;8231;50.866;7.944;2023-12-20T05:47:10;10.48;;;5.82;;
16246;SDS011;8231;50.866;7.944;2023-12-20T05:49:40;16.02;;;8.25;;
16246;SDS011;8231;50.866;7.944;2023-12-20T05:52:08;7.22;;;5.03;;
16246;SDS011;8231;50.866;7.944;2023-12-20T05:54:36;9.63;;;4.90;;
16246;SDS011;8231;50.866;7.944;2023-12-20T05:57:05;7.90;;;5.13;;
16246;SDS011;8231;50.866;7.944;2023-12-20T05:59:33;10.20;;;4.70;;
16246;SDS011;8231;50.866;7.944;2023-12-20T06:02:02;11.65;;;9.40;;
16246;SDS011;8231;50.866;7.944;2023-12-20T06:04:31;9.77;;;4.70;;
16246;SDS011;8231;50.866;7.944;2023-12-20T06:07:01;9.52;;;6.05;;
16246;SDS011;8231;50.866;7.944;2023-12-20T06:09:30;12.77;;;5.72;;
16246;SDS011;8231;50.866;7.944;2023-12-20T06:11:58;12.07;;;6.18;;
16246;SDS011;8231;50.866;7.944;2023-12-20T06:14:26;10.65;;;6.45;;
16246;SDS011;8231;50.866;7.944;2023-12-20T06:16:55;11.82;;;6.38;;
16246;SDS011;8231;50.866;7.944;2023-12-20T06:19:23;19.40;;;6.85;;
16246;SDS011;8231;50.866;7.944;2023-12-20T06:21:51;15.00;;;7.40;;
16246;SDS011;8231;50.866;7.944;2023-12-20T06:24:21;16.45;;;6.57;;
16246;SDS011;8231;50.866;7.944;2023-12-20T06:26:53;15.80;;;5.97;;
16246;SDS011;8231;50.866;7.944;2023-12-20T06:29:22;12.48;;;6.70;;
16246;SDS011;8231;50.866;7.944;2023-12-20T06:31:50;14.13;;;8.23;;
16246;SDS011;8231;50.866;7.944;2023-12-20T06:34:18;13.27;;;6.13;;
16246;SDS011;8231;50.866;7.944;2023-12-20T06:36:47;12.32;;;6.15;;
16246;SDS011;8231;50.866;7.944;2023-12-20T06:39:15;19.15;;;11.65;;
16246;SDS011;8231;50.866;7.944;2023-12-20T06:41:45;16.77;;;7.25;;
16246;SDS011;8231;50.866;7.944;2023-12-20T06:44:13;15.35;;;5.97;;
16246;SDS011;8231;50.866;7.944;2023-12-20T06:46:41;16.25;;;9.27;;
16246;SDS011;8231;50.866;7.944;2023-12-20T06:49:09;13.07;;;6.45;;
16246;SDS011;8231;50.866;7.944;2023-12-20T06:51:38;11.88;;;7.80;;
16246;SDS011;8231;50.866;7.944;2023-12-20T06:54:06;13.32;;;6.60;;
16246;SDS011;8231;50.866;7.944;2023-12-20T06:56:35;18.00;;;7.20;;
16246;SDS011;8231;50.866;7.944;2023-12-20T06:59:04;11.77;;;7.22;;
16246;SDS011;8231;50.866;7.944;2023-12-20T07:01:33;10.02;;;6.50;;
16246;SDS011;8231;50.866;7.944;2023-12-20T07:04:01;19.42;;;10.68;;
16246;SDS011;8231;50.866;7.944;2023-12-20T07:06:29;13.05;;;6.65;;
16246;SDS011;8231;50.866;7.944;2023-12-20T07:08:57;18.25;;;9.60;;
16246;SDS011;8231;50.866;7.944;2023-12-20T07:11:26;16.77;;;8.10;;
16246;SDS011;8231;50.866;7.944;2023-12-20T07:13:54;19.73;;;7.78;;
16246;SDS011;8231;50.866;7.944;2023-12-20T07:16:23;15.27;;;9.98;;
16246;SDS011;8231;50.866;7.944;2023-12-20T07:18:52;12.65;;;6.32;;
16246;SDS011;8231;50.866;7.944;2023-12-20T07:21:20;13.77;;;6.18;;
16246;SDS011;8231;50.866;7.944;2023-12-20T07:23:56;15.40;;;11.90;;
16246;SDS011;8231;50.866;7.944;2023-12-20T07:26:23;13.73;;;7.25;;
16246;SDS011;8231;50.866;7.944;2023-12-20T07:28:51;12.98;;;7.53;;
16246;SDS011;8231;50.866;7.944;2023-12-20T07:31:24;14.98;;;9.07;;
16246;SDS011;8231;50.866;7.944;2023-12-20T07:33:52;16.48;;;8.70;;
16246;SDS011;8231;50.866;7.944;2023-12-20T07:36:23;14.20;;;7.53;;
16246;SDS011;8231;50.866;7.944;2023-12-20T07:38:51;22.17;;;9.07;;
16246;SDS011;8231;50.866;7.944;2023-12-20T07:41:19;15.15;;;8.70;;
16246;SDS011;8231;50.866;7.944;2023-12-20T07:43:48;19.48;;;9.25;;
16246;SDS011;8231;50.866;7.944;2023-12-20T07:46:16;12.68;;;8.63;;
16246;SDS011;8231;50.866;7.944;2023-12-20T07:48:46;21.63;;;10.30;;
16246;SDS011;8231;50.866;7.944;2023-12-20T07:51:15;19.52;;;10.00;;
16246;SDS011;8231;50.866;7.944;2023-12-20T07:53:43;19.13;;;10.07;;
16246;SDS011;8231;50.866;7.944;2023-12-20T07:56:14;15.43;;;8.27;;
16246;SDS011;8231;50.866;7.944;2023-12-20T07:58:43;18.20;;;8.75;;
16246;SDS011;8231;50.866;7.944;2023-12-20T08:01:19;24.27;;;9.98;;
16246;SDS011;8231;50.866;7.944;2023-12-20T08:03:50;18.10;;;10.00;;
16246;SDS011;8231;50.866;7.944;2023-12-20T08:06:18;23.38;;;9.85;;
16246;SDS011;8231;50.866;7.944;2023-12-20T08:08:47;26.45;;;15.27;;
16246;SDS011;8231;50.866;7.944;2023-12-20T08:11:27;16.60;;;8.00;;
16246;SDS011;8231;50.866;7.944;2023-12-20T08:13:55;23.55;;;11.88;;
16246;SDS011;8231;50.866;7.944;2023-12-20T08:16:23;22.20;;;10.20;;
16246;SDS011;8231;50.866;7.944;2023-12-20T08:18:53;13.48;;;8.88;;
16246;SDS011;8231;50.866;7.944;2023-12-20T08:21:22;29.10;;;15.52;;
16246;SDS011;8231;50.866;7.944;2023-12-20T08:23:50;11.65;;;8.45;;
16246;SDS011;8231;50.866;7.944;2023-12-20T08:26:19;22.27;;;9.95;;
16246;SDS011;8231;50.866;7.944;2023-12-20T08:28:48;23.08;;;14.30;;
16246;SDS011;8231;50.866;7.944;2023-12-20T08:31:17;16.30;;;9.02;;
16246;SDS011;8231;50.866;7.944;2023-12-20T08:33:46;11.18;;;6.47;;
16246;SDS011;8231;50.866;7.944;2023-12-20T08:36:17;15.65;;;8.05;;
16246;SDS011;8231;50.866;7.944;2023-12-20T08:38:48;19.10;;;8.38;;
16246;SDS011;8231;50.866;7.944;2023-12-20T08:41:16;20.58;;;8.02;;
16246;SDS011;8231;50.866;7.944;2023-12-20T08:43:45;20.20;;;8.18;;
16246;SDS011;8231;50.866;7.944;2023-12-20T08:46:14;22.25;;;8.65;;
16246;SDS011;8231;50.866;7.944;2023-12-20T08:48:43;19.00;;;7.78;;
16246;SDS011;8231;50.866;7.944;2023-12-20T08:51:12;14.32;;;7.60;;
16246;SDS011;8231;50.866;7.944;2023-12-20T08:53:42;13.43;;;7.93;;
16246;SDS011;8231;50.866;7.944;2023-12-20T08:56:12;16.63;;;7.28;;
16246;SDS011;8231;50.866;7.944;2023-12-20T08:58:40;14.88;;;7.70;;
16246;SDS011;8231;50.866;7.944;2023-12-20T09:01:08;15.25;;;7.53;;
16246;SDS011;8231;50.866;7.944;2023-12-20T09:03:36;17.42;;;8.32;;
16246;SDS011;8231;50.866;7.944;2023-12-20T09:06:05;16.50;;;8.18;;
16246;SDS011;8231;50.866;7.944;2023-12-20T09:08:34;24.70;;;17.77;;
16246;SDS011;8231;50.866;7.944;2023-12-20T09:11:03;15.88;;;7.75;;
16246;SDS011;8231;50.866;7.944;2023-12-20T09:13:32;16.05;;;7.82;;
16246;SDS011;8231;50.866;7.944;2023-12-20T09:16:00;16.20;;;8.30;;
16246;SDS011;8231;50.866;7.944;2023-12-20T09:18:28;9.98;;;6.72;;
16246;SDS011;8231;50.866;7.944;2023-12-20T09:20:56;16.17;;;7.78;;
16246;SDS011;8231;50.866;7.944;2023-12-20T09:23:25;12.77;;;6.65;;
16246;SDS011;8231;50.866;7.944;2023-12-20T09:25:53;13.80;;;7.03;;
16246;SDS011;8231;50.866;7.944;2023-12-20T09:28:25;17.48;;;7.70;;
16246;SDS011;8231;50.866;7.944;2023-12-20T09:30:53;18.15;;;8.45;;
16246;SDS011;8231;50.866;7.944;2023-12-20T09:33:22;12.43;;;6.68;;
16246;SDS011;8231;50.866;7.944;2023-12-20T09:35:51;24.23;;;8.63;;
16246;SDS011;8231;50.866;7.944;2023-12-20T09:38:20;16.50;;;7.18;;
16246;SDS011;8231;50.866;7.944;2023-12-20T09:40:49;15.82;;;8.13;;
16246;SDS011;8231;50.866;7.944;2023-12-20T09:43:18;15.70;;;7.28;;
16246;SDS011;8231;50.866;7.944;2023-12-20T09:45:49;13.05;;;7.43;;
16246;SDS011;8231;50.866;7.944;2023-12-20T09:48:21;15.55;;;8.32;;
16246;SDS011;8231;50.866;7.944;2023-12-20T09:50:49;14.45;;;7.30;;
16246;SDS011;8231;50.866;7.944;2023-12-20T09:53:19;19.00;;;7.15;;
16246;SDS011;8231;50.866;7.944;2023-12-20T09:55:50;16.83;;;8.05;;
16246;SDS011;8231;50.866;7.944;2023-12-20T09:58:19;16.25;;;8.20;;
16246;SDS011;8231;50.866;7.944;2023-12-20T10:00:49;18.55;;;7.75;;
16246;SDS011;8231;50.866;7.944;2023-12-20T10:03:19;17.50;;;8.65;;
16246;SDS011;8231;50.866;7.944;2023-12-20T10:05:52;19.23;;;9.70;;
16246;SDS011;8231;50.866;7.944;2023-12-20T10:08:24;18.25;;;10.15;;
16246;SDS011;8231;50.866;7.944;2023-12-20T10:10:53;18.23;;;9.63;;
16246;SDS011;8231;50.866;7.944;2023-12-20T10:13:22;17.42;;;8.40;;
16246;SDS011;8231;50.866;7.944;2023-12-20T10:15:52;25.25;;;11.38;;
16246;SDS011;8231;50.866;7.944;2023-12-20T10:18:20;21.58;;;11.43;;
16246;SDS011;8231;50.866;7.944;2023-12-20T10:21:03;19.23;;;8.93;;
16246;SDS011;8231;50.866;7.944;2023-12-20T10:23:33;21.95;;;9.88;;
16246;SDS011;8231;50.866;7.944;2023-12-20T10:26:01;26.60;;;13.43;;
16246;SDS011;8231;50.866;7.944;2023-12-20T10:28:32;21.80;;;14.48;;
16246;SDS011;8231;50.866;7.944;2023-12-20T10:31:03;18.48;;;8.55;;
16246;SDS011;8231;50.866;7.944;2023-12-20T10:33:31;18.90;;;8.35;;
16246;SDS011;8231;50.866;7.944;2023-12-20T10:36:01;12.15;;;6.43;;
16246;SDS011;8231;50.866;7.944;2023-12-20T10:38:29;14.35;;;6.43;;
16246;SDS011;8231;50.866;7.944;2023-12-20T10:40:57;15.43;;;6.90;;
16246;SDS011;8231;50.866;7.944;2023-12-20T10:43:26;12.20;;;5.97;;
16246;SDS011;8231;50.866;7.944;2023-12-20T10:45:58;12.15;;;5.22;;
16246;SDS011;8231;50.866;7.944;2023-12-20T10:48:29;16.25;;;7.78;;
16246;SDS011;8231;50.866;7.944;2023-12-20T10:50:59;12.55;;;5.80;;
16246;SDS011;8231;50.866;7.944;2023-12-20T10:53:29;10.00;;;6.15;;
16246;SDS011;8231;50.866;7.944;2023-12-20T10:55:57;12.90;;;5.50;;
16246;SDS011;8231;50.866;7.944;2023-12-20T10:58:30;9.60;;;5.18;;
16246;SDS011;8231;50.866;7.944;2023-12-20T11:01:01;12.30;;;5.15;;
16246;SDS011;8231;50.866;7.944;2023-12-20T11:03:34;14.68;;;5.70;;
16246;SDS011;8231;50.866;7.944;2023-12-20T11:06:07;12.88;;;7.28;;
16246;SDS011;8231;50.866;7.944;2023-12-20T11:08:43;24.88;;;13.02;;
16246;SDS011;8231;50.866;7.944;2023-12-20T11:11:18;14.27;;;6.90;;
16246;SDS011;8231;50.866;7.944;2023-12-20T11:13:54;17.80;;;7.40;;
16246;SDS011;8231;50.866;7.944;2023-12-20T11:16:27;19.00;;;6.55;;
16246;SDS011;8231;50.866;7.944;2023-12-20T11:19:08;9.57;;;5.57;;
16246;SDS011;8231;50.866;7.944;2023-12-20T11:21:41;9.32;;;5.93;;
16246;SDS011;8231;50.866;7.944;2023-12-20T11:24:09;13.40;;;6.45;;
16246;SDS011;8231;50.866;7.944;2023-12-20T11:26:37;17.08;;;6.22;;
16246;SDS011;8231;50.866;7.944;2023-12-20T11:29:29;9.70;;;5.20;;
16246;SDS011;8231;50.866;7.944;2023-12-20T11:31:59;13.10;;;5.97;;
16246;SDS011;8231;50.866;7.944;2023-12-20T11:34:29;11.30;;;5.97;;
16246;SDS011;8231;50.866;7.944;2023-12-20T11:37:00;11.27;;;5.85;;
16246;SDS011;8231;50.866;7.944;2023-12-20T11:39:30;13.23;;;6.68;;
16246;SDS011;8231;50.866;7.944;2023-12-20T11:42:03;16.10;;;6.72;;
16246;SDS011;8231;50.866;7.944;2023-12-20T11:44:33;11.27;;;5.28;;
16246;SDS011;8231;50.866;7.944;2023-12-20T11:47:02;12.18;;;5.53;;
16246;SDS011;8231;50.866;7.944;2023-12-20T11:49:31;11.32;;;5.03;;
16246;SDS011;8231;50.866;7.944;2023-12-20T11:52:00;16.80;;;5.28;;
16246;SDS011;8231;50.866;7.944;2023-12-20T11:54:29;10.65;;;5.78;;
16246;SDS011;8231;50.866;7.944;2023-12-20T11:56:58;14.77;;;5.72;;
16246;SDS011;8231;50.866;7.944;2023-12-20T11:59:26;15.98;;;6.78;;
16246;SDS011;8231;50.866;7.944;2023-12-20T12:01:54;21.17;;;10.15;;
16246;SDS011;8231;50.866;7.944;2023-12-20T12:04:28;18.83;;;9.50;;
16246;SDS011;8231;50.866;7.944;2023-12-20T12:06:58;10.90;;;5.72;;
16246;SDS011;8231;50.866;7.944;2023-12-20T12:09:26;14.43;;;5.07;;
16246;SDS011;8231;50.866;7.944;2023-12-20T12:11:54;8.90;;;5.13;;
16246;SDS011;8231;50.866;7.944;2023-12-20T12:14:23;15.70;;;6.65;;
16246;SDS011;8231;50.866;7.944;2023-12-20T12:16:52;17.90;;;7.65;;
16246;SDS011;8231;50.866;7.944;2023-12-20T12:19:20;12.30;;;6.15;;
16246;SDS011;8231;50.866;7.944;2023-12-20T12:21:50;12.48;;;6.75;;
16246;SDS011;8231;50.866;7.944;2023-12-20T12:24:21;11.38;;;5.72;;
16246;SDS011;8231;50.866;7.944;2023-12-20T12:26:50;10.88;;;6.00;;
16246;SDS011;8231;50.866;7.944;2023-12-20T12:29:19;15.75;;;10.20;;
16246;SDS011;8231;50.866;7.944;2023-12-20T12:31:47;13.30;;;7.18;;
16246;SDS011;8231;50.866;7.944;2023-12-20T12:34:16;11.50;;;6.82;;
16246;SDS011;8231;50.866;7.944;2023-12-20T12:36:45;12.50;;;7.15;;
16246;SDS011;8231;50.866;7.944;2023-12-20T12:39:15;14.95;;;7.43;;
16246;SDS011;8231;50.866;7.944;2023-12-20T12:41:46;15.40;;;7.38;;
16246;SDS011;8231;50.866;7.944;2023-12-20T12:44:14;18.63;;;12.07;;
16246;SDS011;8231;50.866;7.944;2023-12-20T12:46:44;13.02;;;6.55;;
16246;SDS011;8231;50.866;7.944;2023-12-20T12:49:13;11.77;;;6.65;;
16246;SDS011;8231;50.866;7.944;2023-12-20T12:51:41;12.88;;;6.10;;
16246;SDS011;8231;50.866;7.944;2023-12-20T12:54:10;17.08;;;7.45;;
16246;SDS011;8231;50.866;7.944;2023-12-20T12:56:39;12.90;;;6.28;;
16246;SDS011;8231;50.866;7.944;2023-12-20T12:59:09;12.90;;;6.82;;
16246;SDS011;8231;50.866;7.944;2023-12-20T13:01:37;16.92;;;7.93;;
16246;SDS011;8231;50.866;7.944;2023-12-20T13:04:06;16.65;;;6.75;;
16246;SDS011;8231;50.866;7.944;2023-12-20T13:06:37;10.23;;;5.85;;
16246;SDS011;8231;50.866;7.944;2023-12-20T13:09:07;10.05;;;6.07;;
16246;SDS011;8231;50.866;7.944;2023-12-20T13:11:36;11.35;;;5.28;;
16246;SDS011;8231;50.866;7.944;2023-12-20T13:14:05;13.50;;;10.38;;
16246;SDS011;8231;50.866;7.944;2023-12-20T13:16:38;15.85;;;8.70;;
16246;SDS011;8231;50.866;7.944;2023-12-20T13:19:06;12.38;;;6.75;;
16246;SDS011;8231;50.866;7.944;2023-12-20T13:21:35;12.00;;;8.63;;
16246;SDS011;8231;50.866;7.944;2023-12-20T13:24:04;14.95;;;8.20;;
16246;SDS011;8231;50.866;7.944;2023-12-20T13:26:32;19.38;;;10.73;;
16246;SDS011;8231;50.866;7.944;2023-12-20T13:29:01;9.93;;;7.25;;
16246;SDS011;8231;50.866;7.944;2023-12-20T13:31:30;11.07;;;6.55;;
16246;SDS011;8231;50.866;7.944;2023-12-20T13:33:59;13.93;;;6.20;;
16246;SDS011;8231;50.866;7.944;2023-12-20T13:36:28;10.40;;;6.93;;
16246;SDS011;8231;50.866;7.944;2023-12-20T13:38:56;10.73;;;6.15;;
16246;SDS011;8231;50.866;7.944;2023-12-20T13:41:24;9.98;;;6.10;;
16246;SDS011;8231;50.866;7.944;2023-12-20T13:43:53;10.30;;;5.85;;
16246;SDS011;8231;50.866;7.944;2023-12-20T13:46:21;5.93;;;4.50;;
16246;SDS011;8231;50.866;7.944;2023-12-20T13:48:50;10.60;;;4.88;;
16246;SDS011;8231;50.866;7.944;2023-12-20T13:51:20;9.02;;;5.20;;
16246;SDS011;8231;50.866;7.944;2023-12-20T13:53:48;20.85;;;17.13;;
16246;SDS011;8231;50.866;7.944;2023-12-20T13:56:17;6.60;;;4.60;;
16246;SDS011;8231;50.866;7.944;2023-12-20T13:58:46;8.18;;;5.13;;
16246;SDS011;8231;50.866;7.944;2023-12-20T14:01:15;6.63;;;4.80;;
16246;SDS011;8231;50.866;7.944;2023-12-20T14:03:43;9.38;;;5.32;;
16246;SDS011;8231;50.866;7.944;2023-12-20T14:06:11;9.65;;;5.00;;
16246;SDS011;8231;50.866;7.944;2023-12-20T14:08:42;8.07;;;4.35;;
16246;SDS011;8231;50.866;7.944;2023-12-20T14:11:10;8.07;;;5.35;;
16246;SDS011;8231;50.866;7.944;2023-12-20T14:13:40;8.07;;;6.43;;
16246;SDS011;8231;50.866;7.944;2023-12-20T14:16:08;11.50;;;9.35;;
16246;SDS011;8231;50.866;7.944;2023-12-20T14:18:37;6.38;;;5.78;;
16246;SDS011;8231;50.866;7.944;2023-12-20T14:21:07;8.02;;;5.95;;
16246;SDS011;8231;50.866;7.944;2023-12-20T14:23:35;11.15;;;10.00;;
16246;SDS011;8231;50.866;7.944;2023-12-20T14:26:04;7.43;;;5.63;;
16246;SDS011;8231;50.866;7.944;2023-12-20T14:28:33;8.65;;;6.00;;
16246;SDS011;8231;50.866;7.944;2023-12-20T14:31:02;31.20;;;28.08;;
16246;SDS011;8231;50.866;7.944;2023-12-20T14:33:32;8.32;;;6.57;;
16246;SDS011;8231;50.866;7.944;2023-12-20T14:35:59;6.47;;;5.38;;
16246;SDS011;8231;50.866;7.944;2023-12-20T14:38:27;9.88;;;4.97;;
16246;SDS011;8231;50.866;7.944;2023-12-20T14:40:56;7.45;;;4.82;;
16246;SDS011;8231;50.866;7.944;2023-12-20T14:43:25;7.22;;;5.75;;
16246;SDS011;8231;50.866;7.944;2023-12-20T14:45:54;9.10;;;5.07;;
16246;SDS011;8231;50.866;7.944;2023-12-20T14:48:22;9.43;;;5.88;;
16246;SDS011;8231;50.866;7.944;2023-12-20T14:50:51;10.45;;;9.52;;
16246;SDS011;8231;50.866;7.944;2023-12-20T14:53:20;9.65;;;7.03;;
16246;SDS011;8231;50.866;7.944;2023-12-20T14:55:49;11.55;;;8.70;;
16246;SDS011;8231;50.866;7.944;2023-12-20T14:58:17;11.52;;;8.00;;
16246;SDS011;8231;50.866;7.944;2023-12-20T15:00:48;11.35;;;6.90;;
16246;SDS011;8231;50.866;7.944;2023-12-20T15:03:16;7.03;;;6.15;;